Pagrindinis puslapis
METAR-TAF:

METAR-TAF

Oro uostai :

Miri, Malaizija

platuma: 04-20N, ilguma: 113-59E, Aukštis: 17 m

Dabartinis oras

Ataskaita buvo paskelbta 41 minutes, ne 04:00 UTC
Vėjas 3 kt nuo kintamojo kryptimis
Temperatūra 31°C
Drėgmė 79%
Slėgis 1009 hPa
Matomumas 10 km arba daugiau
Išsisklaidę debesys ne aukštis 1600 ft
Su prošvaistėmis ne aukštis 15000 ft

METAR: WBGR 290400Z VRB03KT 9999 SCT016 BKN150 31/27 Q1009

Laikas: 12:41 (04:41 UTC)

Prognozė

Ataskaita buvo paskelbta 5 valandos ir 41 minutes, ne 23:00 UTC
Prognozė galioja nuo 29 metu 00 UTC su 01 metu 00 UTC
Vėjas 5 kt iš Šiaurės/Šiaurės Rytų
Matomumas 10 km arba daugiau
Išsisklaidę debesys ne aukštis 1600 ft

TAF: WBGR 282300Z 2900/0100 02005KT 9999 SCT016

Orai ataskaitas ir orų prognozės (METAR, TAF).

turimą stotys yra geltonos ir raudonos taškus žemėlapyje.

Perkelti pele per norėdami pamatyti stoties vardą.

Tada spustelėkite, norėdami matyti oro stebėjimo ir prognozės.

Norėdami pakeisti žemėlapį: spustelėkite ant žalios mygtukų su juodo kryžiaus žemyn,; žalią mygtuką su brūkšneliu, jei norite nutolinti; arba žalių rodyklių gretimoms žemėlapius.


METAR-TAF: